To NAV CANADA Home Page Login to a new session Search on AWWS site Feedback and Comments Disclaimer Vers la page française équivalente Tips FAQ What's new on the site To the Forecasts and Observations / NOTAM section To "File a Flight Plan" website Publications and other links Update of the User's profile FIC Telephone Numbers My Weather Data Folder Route Weather Data Regional Weather Data Local Weather Data To the Forecasts and Observations / NOTAM section
Request Generated 05/26/2016 at 04:36:36 UTC . Weather information available at that time is displayed.

METAR/TAF

QUEBEC/JEAN LESAGE INTL/QC    

METAR CYQB 260400Z 25004KT 240V320 15SM SKC 10/08 A3003 RMK SLP171=
METAR CYQB 260300Z 33005KT 15SM FEW032 15/09 A3002 RMK SC1 SLP169=
METAR CYQB 260200Z 34005KT 15SM FEW032 15/09 A3002 RMK SC1 SLP170=

TAF CYQB 252338Z 2600/2624 33010G20KT P6SM BKN060
BECMG 2600/2602 30008KT FEW100
FM261000 03005KT P6SM SKC
BECMG 2613/2615 09010KT SCT280
RMK NXT FCST BY 260600Z=
Your time UTC time
Weather data provided by Environment Canada and NAV CANADA